createdAt,value
2019-04-10T00:00:44.159Z,10.29
2019-04-10T00:03:25.888Z,10.43
2019-04-10T00:05:44.873Z,10.38
2019-04-10T00:08:14.367Z,10.31
2019-04-10T00:10:43.858Z,10.22
2019-04-10T00:13:14.200Z,10.24
2019-04-10T00:15:43.653Z,10.34
2019-04-10T00:18:13.732Z,10.28
2019-04-10T00:20:43.116Z,10.38
2019-04-10T00:23:13.162Z,10.33
2019-04-10T00:25:43.462Z,10.26
2019-04-10T00:28:12.905Z,10.15
2019-04-10T00:30:43.036Z,10.19
2019-04-10T00:33:12.526Z,10.29
2019-04-10T00:35:41.876Z,10.33
2019-04-10T00:38:11.230Z,10.32
2019-04-10T00:40:41.559Z,10.40
2019-04-10T00:43:10.993Z,10.41
2019-04-10T00:45:40.356Z,10.45
2019-04-10T00:48:10.012Z,10.45
2019-04-10T00:50:39.402Z,10.44
2019-04-10T00:53:08.744Z,10.41
2019-04-10T00:55:38.145Z,10.42
2019-04-10T00:58:07.522Z,10.53
2019-04-10T01:00:37.054Z,10.39
2019-04-10T01:03:07.376Z,10.43
2019-04-10T01:05:37.662Z,10.45
2019-04-10T01:08:07.086Z,10.47
2019-04-10T01:10:36.765Z,10.49
2019-04-10T01:13:06.331Z,10.46
2019-04-10T01:15:36.467Z,10.39
2019-04-10T01:18:06.733Z,10.17
2019-04-10T01:20:36.190Z,10.07
2019-04-10T01:23:05.868Z,10.13
2019-04-10T01:25:35.327Z,9.95
2019-04-10T01:28:04.748Z,9.89
2019-04-10T01:30:34.793Z,9.68
2019-04-10T01:33:04.250Z,9.80
2019-04-10T01:35:34.202Z,9.97
2019-04-10T01:38:05.907Z,10.13
2019-04-10T01:40:35.191Z,10.28
2019-04-10T01:43:10.827Z,10.26
2019-04-10T01:45:35.760Z,10.33
2019-04-10T01:48:05.950Z,10.33
2019-04-10T01:50:35.420Z,10.31
2019-04-10T01:53:05.616Z,10.33
2019-04-10T01:55:35.749Z,10.37
2019-04-10T01:58:08.559Z,10.41
2019-04-10T02:00:39.542Z,10.36
2019-04-10T02:03:09.808Z,10.43
2019-04-10T02:05:39.315Z,10.45
2019-04-10T02:08:12.765Z,10.49
2019-04-10T02:10:40.539Z,10.45
2019-04-10T02:13:09.964Z,10.48
2019-04-10T02:15:39.373Z,10.37
2019-04-10T02:18:09.077Z,10.39
2019-04-10T02:20:38.908Z,10.45
2019-04-10T02:23:08.445Z,10.46
2019-04-10T02:25:38.983Z,10.39
2019-04-10T02:28:08.997Z,10.41
2019-04-10T02:30:39.625Z,10.38
2019-04-10T02:33:10.716Z,10.33
2019-04-10T02:35:40.243Z,10.33
2019-04-10T02:38:25.958Z,10.25
2019-04-10T02:40:41.681Z,10.13
2019-04-10T02:43:12.442Z,10.03
2019-04-10T02:45:44.246Z,9.92
2019-04-10T02:48:14.906Z,9.94
2019-04-10T02:50:45.766Z,9.94
2019-04-10T02:53:15.892Z,9.88
2019-04-10T02:55:45.324Z,9.74
2019-04-10T02:58:15.935Z,9.78
2019-04-10T03:00:46.372Z,9.74
2019-04-10T03:03:16.045Z,9.62
2019-04-10T03:05:46.654Z,9.64
2019-04-10T03:08:17.356Z,9.72
2019-04-10T03:10:50.608Z,9.73
2019-04-10T03:13:18.341Z,9.72
2019-04-10T03:15:49.877Z,9.73
2019-04-10T03:18:20.886Z,9.76
2019-04-10T03:20:50.921Z,9.75
2019-04-10T03:23:21.076Z,9.67
2019-04-10T03:25:50.955Z,9.73
2019-04-10T03:28:20.361Z,9.74
2019-04-10T03:30:49.734Z,9.67
2019-04-10T03:33:36.031Z,9.56
2019-04-10T03:36:05.282Z,9.51
2019-04-10T03:38:47.326Z,9.56
2019-04-10T03:41:06.111Z,9.62
2019-04-10T03:43:36.144Z,9.65
2019-04-10T03:46:05.999Z,9.70
2019-04-10T03:48:36.775Z,9.66
2019-04-10T03:51:06.109Z,9.70
2019-04-10T03:53:35.386Z,9.74
2019-04-10T03:56:05.367Z,9.75
2019-04-10T03:58:35.642Z,9.81
2019-04-10T04:01:05.064Z,9.85
2019-04-10T04:03:35.060Z,9.78
2019-04-10T04:06:04.562Z,9.85
2019-04-10T04:08:34.015Z,9.74
2019-04-10T04:11:04.845Z,9.72
2019-04-10T04:13:35.513Z,9.63
2019-04-10T04:16:06.672Z,9.77
2019-04-10T04:18:37.209Z,9.69
2019-04-10T04:21:07.675Z,9.85
2019-04-10T04:23:38.189Z,9.72
2019-04-10T04:26:08.755Z,9.48
2019-04-10T04:28:38.116Z,9.51
2019-04-10T04:31:07.516Z,9.45
2019-04-10T04:33:36.869Z,9.26
2019-04-10T04:36:06.457Z,9.34
2019-04-10T04:38:36.797Z,9.48
2019-04-10T04:41:06.854Z,9.62
2019-04-10T04:43:37.037Z,9.61
2019-04-10T04:46:06.542Z,9.81
2019-04-10T04:48:36.887Z,9.79
2019-04-10T04:51:06.689Z,9.77
2019-04-10T04:53:36.485Z,9.77
2019-04-10T04:56:06.031Z,9.95
2019-04-10T04:58:36.065Z,10.00
2019-04-10T05:01:06.283Z,10.00
2019-04-10T05:03:35.713Z,9.97
2019-04-10T05:06:05.915Z,9.89
2019-04-10T05:08:35.363Z,10.08
2019-04-10T05:11:04.710Z,10.15
2019-04-10T05:13:34.887Z,10.11
2019-04-10T05:16:04.286Z,10.28
2019-04-10T05:18:33.692Z,10.38
2019-04-10T05:21:03.115Z,10.45
2019-04-10T05:23:33.092Z,10.48
2019-04-10T05:26:02.553Z,10.52
2019-04-10T05:28:32.741Z,10.48
2019-04-10T05:31:03.084Z,10.46
2019-04-10T05:33:33.171Z,10.50
2019-04-10T05:36:02.676Z,10.41
2019-04-10T05:38:32.028Z,10.57
2019-04-10T05:41:01.470Z,10.63
2019-04-10T05:43:30.783Z,10.43
2019-04-10T05:46:00.149Z,10.49
2019-04-10T05:48:29.536Z,10.42
2019-04-10T05:51:03.081Z,10.59
2019-04-10T05:53:30.005Z,10.61
2019-04-10T05:55:59.404Z,10.56
2019-04-10T05:58:29.350Z,10.66
2019-04-10T06:01:01.039Z,10.67
2019-04-10T06:03:30.477Z,10.61
2019-04-10T06:06:01.158Z,10.52
2019-04-10T06:08:31.195Z,10.65
2019-04-10T06:11:00.615Z,10.61
2019-04-10T06:13:30.050Z,10.59
2019-04-10T06:15:59.683Z,10.58
2019-04-10T06:18:29.316Z,10.63
2019-04-10T06:20:58.903Z,10.74
2019-04-10T06:23:28.287Z,10.75
2019-04-10T06:25:58.383Z,10.78
2019-04-10T06:28:29.289Z,10.83
2019-04-10T06:31:00.460Z,10.95
2019-04-10T06:33:29.962Z,10.98
2019-04-10T06:35:59.374Z,10.96
2019-04-10T06:38:28.808Z,11.02
2019-04-10T06:40:58.098Z,11.00
2019-04-10T06:43:28.694Z,11.03
2019-04-10T06:45:58.223Z,11.03
2019-04-10T06:48:27.919Z,11.03
2019-04-10T06:50:57.337Z,10.96
2019-04-10T06:53:26.902Z,10.89
2019-04-10T06:55:59.140Z,10.66
2019-04-10T06:58:28.687Z,10.75
2019-04-10T07:01:01.379Z,10.76
2019-04-10T07:03:45.756Z,10.73
2019-04-10T07:06:07.790Z,10.89
2019-04-10T07:08:31.984Z,10.96
2019-04-10T07:11:05.984Z,10.96
2019-04-10T07:13:36.819Z,10.90
2019-04-10T07:16:04.256Z,10.99
2019-04-10T07:18:35.874Z,10.97
2019-04-10T07:21:04.828Z,11.05
2019-04-10T07:23:34.178Z,11.09
2019-04-10T07:26:03.996Z,10.94
2019-04-10T07:28:36.198Z,11.01
2019-04-10T07:31:07.240Z,11.15
2019-04-10T07:33:35.676Z,11.16
2019-04-10T07:36:08.959Z,11.31
2019-04-10T07:38:37.157Z,11.47
2019-04-10T07:41:13.731Z,11.60
2019-04-10T07:43:38.655Z,11.72
2019-04-10T07:46:08.247Z,11.56
2019-04-10T07:48:37.900Z,11.69
2019-04-10T07:51:07.413Z,11.83
2019-04-10T07:53:37.295Z,11.60
2019-04-10T07:56:12.017Z,11.83
2019-04-10T07:58:37.830Z,11.80
2019-04-10T08:01:07.906Z,11.69
2019-04-10T08:03:37.456Z,11.74
2019-04-10T08:06:06.856Z,11.76
2019-04-10T08:08:36.324Z,11.87
2019-04-10T08:11:07.046Z,11.98
2019-04-10T08:13:36.589Z,12.08
2019-04-10T08:16:06.323Z,12.11
2019-04-10T08:18:35.786Z,11.78
2019-04-10T08:21:05.194Z,12.09
2019-04-10T08:23:35.658Z,12.04
2019-04-10T08:26:05.774Z,12.07
2019-04-10T08:28:35.215Z,12.37
2019-04-10T08:31:04.598Z,12.50
2019-04-10T08:33:35.045Z,12.29
2019-04-10T08:36:05.316Z,12.56
2019-04-10T08:41:10.729Z,12.77
2019-04-10T08:43:40.087Z,12.54
2019-04-10T08:46:10.744Z,12.49
2019-04-10T08:48:41.237Z,12.43
2019-04-10T08:51:10.830Z,12.45
2019-04-10T08:53:40.345Z,12.52
2019-04-10T08:56:10.752Z,12.51
2019-04-10T08:58:41.267Z,12.61
2019-04-10T09:01:11.188Z,12.79
2019-04-10T09:03:41.285Z,12.95
2019-04-10T09:06:11.275Z,13.17
2019-04-10T09:11:13.022Z,13.64
2019-04-10T09:13:42.384Z,13.57
2019-04-10T09:16:12.135Z,13.65
2019-04-10T09:18:41.627Z,13.66
2019-04-10T09:21:11.172Z,13.93
2019-04-10T09:23:47.360Z,14.13
2019-04-10T09:26:11.701Z,14.09
2019-04-10T09:28:42.171Z,14.49
2019-04-10T09:31:11.958Z,14.68
2019-04-10T09:33:41.310Z,14.78
2019-04-10T09:36:11.175Z,14.94
2019-04-10T09:38:41.045Z,15.22
2019-04-10T09:41:10.522Z,15.39
2019-04-10T09:43:40.094Z,15.38
2019-04-10T09:46:10.095Z,15.08
2019-04-10T09:48:40.624Z,14.82
2019-04-10T09:51:09.967Z,14.79
2019-04-10T09:53:39.354Z,14.84
2019-04-10T09:56:09.530Z,14.86
2019-04-10T09:58:38.966Z,15.13
2019-04-10T10:01:14.534Z,15.26
2019-04-10T10:03:44.520Z,15.11
2019-04-10T10:06:25.108Z,15.08
2019-04-10T10:08:44.978Z,15.10
2019-04-10T10:11:14.395Z,15.04
2019-04-10T10:13:43.755Z,15.33
2019-04-10T10:16:13.129Z,15.40
2019-04-10T10:18:43.585Z,15.42
2019-04-10T10:21:13.053Z,15.53
2019-04-10T10:23:43.156Z,15.29
2019-04-10T10:26:13.026Z,15.48
2019-04-10T10:28:42.927Z,15.48
2019-04-10T10:31:13.684Z,15.83
2019-04-10T10:33:43.182Z,15.83
2019-04-10T10:36:13.521Z,15.83
2019-04-10T10:38:43.362Z,15.98
2019-04-10T10:41:13.032Z,16.56
2019-04-10T10:43:42.650Z,16.82
2019-04-10T10:46:12.044Z,17.41
2019-04-10T10:48:42.052Z,17.44
2019-04-10T10:51:12.792Z,17.25
2019-04-10T10:53:42.392Z,17.21
2019-04-10T10:56:11.948Z,16.89
2019-04-10T10:58:41.292Z,17.21
2019-04-10T11:01:11.605Z,17.30
2019-04-10T11:03:41.009Z,17.00
2019-04-10T11:06:10.861Z,17.06
2019-04-10T11:08:40.340Z,17.22
2019-04-10T11:11:10.889Z,17.02
2019-04-10T11:13:40.917Z,17.00
2019-04-10T11:16:10.412Z,16.92
2019-04-10T11:18:40.363Z,16.77
2019-04-10T11:21:11.688Z,16.51
2019-04-10T11:23:42.200Z,16.58
2019-04-10T11:26:14.052Z,16.53
2019-04-10T11:28:43.272Z,16.59
2019-04-10T11:31:13.596Z,16.35
2019-04-10T11:33:47.518Z,16.59
2019-04-10T11:36:15.128Z,16.41
2019-04-10T11:38:45.363Z,16.44
2019-04-10T11:41:18.081Z,16.42
2019-04-10T11:43:48.053Z,16.30
2019-04-10T11:46:17.479Z,16.18
2019-04-10T11:48:46.981Z,16.12
2019-04-10T11:51:16.527Z,16.16
2019-04-10T11:53:50.757Z,16.29
2019-04-10T11:56:19.141Z,16.41
2019-04-10T11:58:54.128Z,16.59
2019-04-10T12:01:21.555Z,16.74
2019-04-10T12:03:52.215Z,16.71
2019-04-10T12:06:24.770Z,16.83
2019-04-10T12:09:13.649Z,17.01
2019-04-10T12:11:24.704Z,17.25
2019-04-10T12:13:54.576Z,17.36
2019-04-10T12:16:25.095Z,17.44
2019-04-10T12:18:55.037Z,18.34
2019-04-10T12:21:26.224Z,18.98
2019-04-10T12:23:55.625Z,18.58
2019-04-10T12:26:25.522Z,18.89
2019-04-10T12:28:55.036Z,18.97
2019-04-10T12:31:26.014Z,18.94
2019-04-10T12:33:56.964Z,18.68
2019-04-10T12:36:26.665Z,18.43
2019-04-10T12:38:56.250Z,18.02
2019-04-10T12:41:25.621Z,17.58
2019-04-10T12:43:55.056Z,17.31
2019-04-10T12:46:24.480Z,17.16
2019-04-10T12:48:54.932Z,16.76
2019-04-10T12:51:24.369Z,16.64
2019-04-10T12:53:54.053Z,16.46
2019-04-10T12:56:24.096Z,16.42
2019-04-10T12:58:53.575Z,16.28
2019-04-10T13:01:22.925Z,16.36
2019-04-10T13:03:52.293Z,16.51
2019-04-10T13:06:22.067Z,16.49
2019-04-10T13:09:00.879Z,16.64
2019-04-10T13:11:22.811Z,16.63
2019-04-10T13:13:52.757Z,16.45
2019-04-10T13:16:22.118Z,16.36
2019-04-10T13:18:52.343Z,16.29
2019-04-10T13:21:22.160Z,16.30
2019-04-10T13:23:51.636Z,16.30
2019-04-10T13:26:21.771Z,16.32
2019-04-10T13:28:51.834Z,16.32
2019-04-10T13:31:21.466Z,16.16
2019-04-10T13:33:51.118Z,16.12
2019-04-10T13:36:21.569Z,16.04
2019-04-10T13:38:51.195Z,16.06
2019-04-10T13:41:20.765Z,16.03
2019-04-10T13:43:50.143Z,16.01
2019-04-10T13:46:20.517Z,15.94
2019-04-10T13:48:49.950Z,15.91
2019-04-10T13:51:19.426Z,15.91
2019-04-10T13:53:48.757Z,15.91
2019-04-10T13:56:19.101Z,15.91
2019-04-10T13:58:48.795Z,15.83
2019-04-10T14:01:25.321Z,15.82
2019-04-10T14:03:54.713Z,15.80
2019-04-10T14:06:24.170Z,15.66
2019-04-10T14:09:10.078Z,15.56
2019-04-10T14:11:25.041Z,15.46
2019-04-10T14:13:54.406Z,15.46
2019-04-10T14:16:24.477Z,15.40
2019-04-10T14:18:53.909Z,15.36
2019-04-10T14:21:23.269Z,15.19
2019-04-10T14:23:53.581Z,15.14
2019-04-10T14:26:46.595Z,15.09
2019-04-10T14:29:14.430Z,15.02
2019-04-10T14:32:01.730Z,15.04
2019-04-10T14:34:31.367Z,14.85
2019-04-10T14:37:01.138Z,14.79
2019-04-10T14:39:31.418Z,14.77
2019-04-10T14:42:00.889Z,14.77
2019-04-10T14:44:30.613Z,14.75
2019-04-10T14:47:00.282Z,14.75
2019-04-10T14:49:29.731Z,14.77
2019-04-10T14:51:59.099Z,14.77
2019-04-10T14:54:28.493Z,14.87
2019-04-10T14:56:58.788Z,14.91
2019-04-10T14:59:28.270Z,15.10
2019-04-10T15:01:58.017Z,15.18
2019-04-10T15:04:27.464Z,15.35
2019-04-10T15:06:57.574Z,15.68
2019-04-10T15:09:27.715Z,15.68
2019-04-10T15:11:57.310Z,16.21
2019-04-10T15:14:27.861Z,16.78
2019-04-10T15:17:02.656Z,17.07
2019-04-10T15:19:28.986Z,17.46
2019-04-10T15:21:59.107Z,17.86
2019-04-10T15:24:28.814Z,18.13
2019-04-10T15:26:58.167Z,18.43
2019-04-10T15:29:28.090Z,18.80
2019-04-10T15:31:57.842Z,18.79
2019-04-10T15:34:28.242Z,19.38
2019-04-10T15:36:58.495Z,19.32
2019-04-10T15:42:03.760Z,19.49
2019-04-10T15:44:34.198Z,19.13
2019-04-10T15:47:14.553Z,18.99
2019-04-10T15:49:36.745Z,19.30
2019-04-10T15:52:06.181Z,18.86
2019-04-10T15:54:36.064Z,18.68
2019-04-10T15:57:06.740Z,18.73
2019-04-10T15:59:36.631Z,18.52
2019-04-10T16:02:06.233Z,18.63
2019-04-10T16:04:35.881Z,18.77
2019-04-10T16:07:06.232Z,18.84
2019-04-10T16:09:46.337Z,18.67
2019-04-10T16:12:16.649Z,18.37
2019-04-10T16:14:46.562Z,18.42
2019-04-10T16:17:26.508Z,18.41
2019-04-10T16:20:17.890Z,17.98
2019-04-10T16:23:12.362Z,17.89
2019-04-10T16:25:46.657Z,17.57
2019-04-10T16:28:16.275Z,17.27
2019-04-10T16:30:46.609Z,16.87
2019-04-10T16:33:16.903Z,16.75
2019-04-10T16:35:46.366Z,16.51
2019-04-10T16:38:16.358Z,16.18
2019-04-10T16:40:46.015Z,16.12
2019-04-10T16:43:16.000Z,15.69
2019-04-10T16:45:45.534Z,15.78
2019-04-10T16:48:15.154Z,15.59
2019-04-10T16:50:45.669Z,15.51
2019-04-10T16:53:16.025Z,15.40
2019-04-10T16:55:45.571Z,15.43
2019-04-10T16:58:15.907Z,15.43
2019-04-10T17:00:45.421Z,15.33
2019-04-10T17:03:15.650Z,15.22
2019-04-10T17:05:45.957Z,15.18
2019-04-10T17:08:16.142Z,15.19
2019-04-10T17:10:45.934Z,15.08
2019-04-10T17:13:16.252Z,15.03
2019-04-10T17:15:48.544Z,14.88
2019-04-10T17:18:17.131Z,14.67
2019-04-10T17:20:46.882Z,14.70
2019-04-10T17:23:16.485Z,14.64
2019-04-10T17:25:46.540Z,14.66
2019-04-10T17:28:16.444Z,14.63
2019-04-10T17:30:46.373Z,14.70
2019-04-10T17:33:16.617Z,14.67
2019-04-10T17:35:46.105Z,14.52
2019-04-10T17:38:15.504Z,14.47
2019-04-10T17:40:50.621Z,14.36
2019-04-10T17:43:18.932Z,14.27
2019-04-10T17:45:49.003Z,14.16
2019-04-10T17:48:19.799Z,14.11
2019-04-10T17:50:49.823Z,14.11
2019-04-10T17:53:29.382Z,14.11
2019-04-10T17:56:09.260Z,14.09
2019-04-10T17:58:38.811Z,14.00
2019-04-10T18:01:12.510Z,14.05
2019-04-10T18:03:50.578Z,14.10
2019-04-10T18:06:13.368Z,14.00
2019-04-10T18:08:43.161Z,13.95
2019-04-10T18:11:14.133Z,13.90
2019-04-10T18:13:44.849Z,13.85
2019-04-10T18:16:14.724Z,13.89
2019-04-10T18:18:45.728Z,13.82
2019-04-10T18:21:16.841Z,13.76
2019-04-10T18:23:47.379Z,13.81
2019-04-10T18:26:20.283Z,13.82
2019-04-10T18:28:48.018Z,13.79
2019-04-10T18:31:18.683Z,13.67
2019-04-10T18:33:48.956Z,13.62
2019-04-10T18:36:19.468Z,13.59
2019-04-10T18:38:55.199Z,13.47
2019-04-10T18:41:24.604Z,13.48
2019-04-10T18:43:54.051Z,13.42
2019-04-10T18:46:24.014Z,13.32
2019-04-10T18:48:54.739Z,13.28
2019-04-10T18:51:25.680Z,13.19
2019-04-10T18:53:55.460Z,13.19
2019-04-10T18:56:25.342Z,13.03
2019-04-10T18:59:29.000Z,13.00
2019-04-10T19:02:15.899Z,12.87
2019-04-10T19:04:57.175Z,12.75
2019-04-10T19:07:26.569Z,12.73
2019-04-10T19:09:56.666Z,12.72
2019-04-10T19:12:26.507Z,12.67
2019-04-10T19:14:56.338Z,12.66
2019-04-10T19:17:26.679Z,12.65
2019-04-10T19:19:56.829Z,12.62
2019-04-10T19:22:26.355Z,12.55
2019-04-10T19:24:56.706Z,12.53
2019-04-10T19:27:26.731Z,12.49
2019-04-10T19:29:57.021Z,12.42
2019-04-10T19:32:35.556Z,12.31
2019-04-10T19:35:06.605Z,12.23
2019-04-10T19:37:36.742Z,12.30
2019-04-10T19:40:07.048Z,12.27
2019-04-10T19:42:37.615Z,12.07
2019-04-10T19:45:07.922Z,12.08
2019-04-10T19:47:38.744Z,12.16
2019-04-10T19:50:09.045Z,12.16
2019-04-10T19:52:38.501Z,12.12
2019-04-10T19:55:08.250Z,12.09
2019-04-10T19:57:37.552Z,11.96
2019-04-10T20:00:10.559Z,11.77
2019-04-10T20:02:40.598Z,11.61
2019-04-10T20:05:10.911Z,11.48
2019-04-10T20:07:40.859Z,11.19
2019-04-10T20:10:10.892Z,11.18
2019-04-10T20:12:40.472Z,10.97
2019-04-10T20:15:12.094Z,10.73
2019-04-10T20:17:41.663Z,10.70
2019-04-10T20:20:11.239Z,10.73
2019-04-10T20:22:41.755Z,10.83
2019-04-10T20:25:12.382Z,11.06
2019-04-10T20:27:42.494Z,11.05
2019-04-10T20:30:12.151Z,11.20
2019-04-10T20:32:42.005Z,11.20
2019-04-10T20:35:11.936Z,11.31
2019-04-10T20:37:41.510Z,11.40
2019-04-10T20:40:11.921Z,11.42
2019-04-10T20:42:42.496Z,11.42
2019-04-10T20:45:14.231Z,11.37
2019-04-10T20:47:43.501Z,11.39
2019-04-10T20:50:12.978Z,11.35
2019-04-10T20:52:43.247Z,11.33
2019-04-10T20:55:13.220Z,11.19
2019-04-10T20:57:43.787Z,11.15
2019-04-10T21:00:20.379Z,11.13
2019-04-10T21:02:50.855Z,11.03
2019-04-10T21:05:20.273Z,10.91
2019-04-10T21:07:50.203Z,10.89
2019-04-10T21:10:19.696Z,10.88
2019-04-10T21:12:49.090Z,10.83
2019-04-10T21:15:19.559Z,10.82
2019-04-10T21:17:49.122Z,10.69
2019-04-10T21:20:18.559Z,10.75
2019-04-10T21:22:47.886Z,10.79
2019-04-10T21:25:17.264Z,10.80
2019-04-10T21:27:49.217Z,10.89
2019-04-10T21:30:36.069Z,10.89
2019-04-10T21:33:24.692Z,10.85
2019-04-10T21:35:54.177Z,10.77
2019-04-10T21:38:23.659Z,10.21
2019-04-10T21:40:53.038Z,10.21
2019-04-10T21:43:22.829Z,10.24
2019-04-10T21:45:52.350Z,10.26
2019-04-10T21:48:22.386Z,10.30
2019-04-10T21:50:51.978Z,10.34
2019-04-10T21:53:25.084Z,10.30
2019-04-10T21:55:55.523Z,10.35
2019-04-10T21:58:25.162Z,10.29
2019-04-10T22:01:13.626Z,10.08
2019-04-10T22:03:43.547Z,9.92
2019-04-10T22:06:19.862Z,9.71
2019-04-10T22:08:59.507Z,9.75
2019-04-10T22:11:30.807Z,9.74
2019-04-10T22:14:00.489Z,10.00
2019-04-10T22:16:30.304Z,10.03
2019-04-10T22:18:59.616Z,10.06
2019-04-10T22:21:29.202Z,9.90
2019-04-10T22:23:58.874Z,9.70
2019-04-10T22:26:28.336Z,9.61
2019-04-10T22:28:57.882Z,9.73
2019-04-10T22:31:27.941Z,9.87
2019-04-10T22:33:57.571Z,10.02
2019-04-10T22:36:26.917Z,9.91
2019-04-10T22:38:56.269Z,9.78
2019-04-10T22:41:30.709Z,9.70
2019-04-10T22:43:57.053Z,9.61
2019-04-10T22:46:26.492Z,9.55
2019-04-10T22:48:55.907Z,9.53
2019-04-10T22:51:25.260Z,9.51
2019-04-10T22:53:55.542Z,9.57
2019-04-10T22:56:25.214Z,9.67
2019-04-10T22:58:54.567Z,9.70
2019-04-10T23:01:23.944Z,9.76
2019-04-10T23:03:53.332Z,9.78
2019-04-10T23:06:23.082Z,9.83
2019-04-10T23:08:52.661Z,9.84
2019-04-10T23:11:31.739Z,9.89
2019-04-10T23:13:54.272Z,9.95
2019-04-10T23:16:24.163Z,9.91
2019-04-10T23:18:53.924Z,9.95
2019-04-10T23:21:23.381Z,9.91
2019-04-10T23:23:52.773Z,9.80
2019-04-10T23:26:22.860Z,9.67
2019-04-10T23:28:52.680Z,9.59
2019-04-10T23:31:22.329Z,9.53
2019-04-10T23:33:52.430Z,9.41
2019-04-10T23:36:23.094Z,9.33
2019-04-10T23:38:52.863Z,9.35
2019-04-10T23:41:23.259Z,9.30
2019-04-10T23:43:53.631Z,9.30
2019-04-10T23:46:23.168Z,9.33
2019-04-10T23:48:52.991Z,9.32
2019-04-10T23:51:23.126Z,9.35
2019-04-10T23:53:53.031Z,9.43
2019-04-10T23:56:22.618Z,9.46
2019-04-10T23:58:51.957Z,9.42
